Time;durP1;ratioP1;P1;durP2;ratioP2;P2;SDS_P1;SDS_P2;PMS_P1;PMS_P2;Temp;Humidity;BMP_temperature;BMP_pressure;BME280_temperature;BME280_humidity;BME280_pressure;Samples;Min_cycle;Max_cycle;Signal;HPM_P1;HPM_P2
2022/05/02 00:00:25;;;;;;;11.43;5.32;;;;;;;;;;5010048;28;20593;-78
2022/05/02 00:02:52;;;;;;;9.75;6.22;;;;;;;;;;4997979;28;20089;-78
2022/05/02 00:05:19;;;;;;;11.48;5.88;;;;;;;;;;5022159;28;20045;-78
2022/05/02 00:07:45;;;;;;;11.25;6.40;;;;;;;;;;5008541;28;20133;-78
2022/05/02 00:10:12;;;;;;;10.25;5.80;;;;;;;;;;5001209;28;20097;-78
2022/05/02 00:12:39;;;;;;;9.90;5.78;;;;;;;;;;5008471;28;20129;-78
2022/05/02 00:15:05;;;;;;;10.20;6.20;;;;;;;;;;4997358;28;20102;-79
2022/05/02 00:20:17;;;;;;;12.13;6.95;;;;;;;;;;5008700;28;20050;-78
2022/05/02 00:22:44;;;;;;;10.10;6.32;;;;;;;;;;5006433;28;20133;-79
2022/05/02 00:25:11;;;;;;;10.23;6.45;;;;;;;;;;5007016;28;20058;-79
2022/05/02 00:27:38;;;;;;;13.43;6.88;;;;;;;;;;5005842;28;20064;-79
2022/05/02 00:30:06;;;;;;;10.70;6.72;;;;;;;;;;5007807;28;20112;-79
2022/05/02 00:32:32;;;;;;;10.73;6.15;;;;;;;;;;5005208;28;20141;-79
2022/05/02 00:34:58;;;;;;;11.05;6.43;;;;;;;;;;5008207;28;20576;-79
2022/05/02 00:37:24;;;;;;;11.10;6.70;;;;;;;;;;5022108;28;20169;-79
2022/05/02 00:39:51;;;;;;;12.70;6.75;;;;;;;;;;5022990;28;20080;-79
2022/05/02 00:42:20;;;;;;;11.35;7.15;;;;;;;;;;5018600;28;20077;-79
2022/05/02 00:44:46;;;;;;;11.13;6.50;;;;;;;;;;5006126;28;20055;-79
2022/05/02 00:47:15;;;;;;;12.73;6.50;;;;;;;;;;5019702;28;20053;-79
2022/05/02 00:49:42;;;;;;;11.80;6.80;;;;;;;;;;5029068;28;20433;-79
2022/05/02 00:52:09;;;;;;;11.60;5.88;;;;;;;;;;5005783;28;20927;-79
2022/05/02 00:54:37;;;;;;;12.93;6.65;;;;;;;;;;5005423;28;20047;-79
2022/05/02 00:57:07;;;;;;;11.52;6.00;;;;;;;;;;5014554;28;20145;-79
2022/05/02 00:59:35;;;;;;;11.80;6.53;;;;;;;;;;5007728;28;20054;-78
2022/05/02 01:02:01;;;;;;;10.23;5.90;;;;;;;;;;5008737;28;20141;-78
2022/05/02 01:04:28;;;;;;;10.38;6.63;;;;;;;;;;5009111;28;20078;-80
2022/05/02 01:07:12;;;;;;;10.60;6.10;;;;;;;;;;5011149;28;20170;-78
2022/05/02 01:09:44;;;;;;;12.57;6.20;;;;;;;;;;5014083;28;20054;-79
2022/05/02 01:12:15;;;;;;;10.25;6.43;;;;;;;;;;5007455;28;20057;-79
2022/05/02 01:14:41;;;;;;;;;;;;;;;;;;5013791;28;20068;-79
2022/05/02 01:17:07;;;;;;;9.73;6.20;;;;;;;;;;5013323;28;46306;-80
2022/05/02 01:19:34;;;;;;;13.15;6.18;;;;;;;;;;5023528;28;20058;-77
2022/05/02 01:22:01;;;;;;;11.00;6.00;;;;;;;;;;5002433;28;20141;-79
2022/05/02 01:24:32;;;;;;;11.75;5.95;;;;;;;;;;5017104;28;20066;-80
2022/05/02 01:26:58;;;;;;;11.98;6.60;;;;;;;;;;5016634;28;20145;-80
2022/05/02 01:29:25;;;;;;;11.90;6.60;;;;;;;;;;5026502;28;20066;-80
2022/05/02 01:31:54;;;;;;;12.55;6.68;;;;;;;;;;5011594;28;20105;-77
2022/05/02 01:34:21;;;;;;;11.02;6.43;;;;;;;;;;5010452;28;20564;-77
2022/05/02 01:36:47;;;;;;;14.15;6.55;;;;;;;;;;5009330;28;20113;-78
2022/05/02 01:39:14;;;;;;;10.93;6.78;;;;;;;;;;5015897;28;20061;-77
2022/05/02 01:41:40;;;;;;;11.18;6.35;;;;;;;;;;5009897;28;20058;-80
2022/05/02 01:44:07;;;;;;;12.45;6.22;;;;;;;;;;5010109;28;20169;-78
2022/05/02 01:46:33;;;;;;;11.00;6.55;;;;;;;;;;5017048;28;20121;-76
2022/05/02 01:49:00;;;;;;;11.43;6.55;;;;;;;;;;5019217;28;20062;-76
2022/05/02 01:51:26;;;;;;;10.13;6.13;;;;;;;;;;5010433;28;20055;-78
2022/05/02 01:53:52;;;;;;;11.45;6.65;;;;;;;;;;5009550;28;20098;-78
2022/05/02 01:56:19;;;;;;;12.35;6.55;;;;;;;;;;5010865;28;20160;-79
2022/05/02 01:58:45;;;;;;;11.23;6.00;;;;;;;;;;5018375;28;20621;-78
2022/05/02 02:01:11;;;;;;;13.80;6.60;;;;;;;;;;5023793;28;20114;-78
2022/05/02 02:03:38;;;;;;;11.20;6.55;;;;;;;;;;5009280;28;20129;-79
2022/05/02 02:06:05;;;;;;;9.75;5.80;;;;;;;;;;5009555;28;20552;-79
2022/05/02 02:08:33;;;;;;;11.23;6.03;;;;;;;;;;5006987;28;20145;-76
2022/05/02 02:11:01;;;;;;;12.02;6.57;;;;;;;;;;5006121;28;20097;-77
2022/05/02 02:13:27;;;;;;;9.73;6.10;;;;;;;;;;5028760;28;20072;-78
2022/05/02 02:15:54;;;;;;;11.02;6.13;;;;;;;;;;5010200;28;20141;-79
2022/05/02 02:18:20;;;;;;;8.85;5.35;;;;;;;;;;5014958;28;20050;-78
2022/05/02 02:20:48;;;;;;;10.00;6.20;;;;;;;;;;5010932;28;20053;-79
2022/05/02 02:23:15;;;;;;;14.43;7.10;;;;;;;;;;5037934;28;21171;-78
2022/05/02 02:25:41;;;;;;;11.60;5.68;;;;;;;;;;5005694;28;20097;-76
2022/05/02 02:28:08;;;;;;;10.07;5.95;;;;;;;;;;5021063;28;20061;-77
2022/05/02 02:30:35;;;;;;;10.07;5.68;;;;;;;;;;5016428;28;20107;-77
2022/05/02 02:33:01;;;;;;;10.05;5.63;;;;;;;;;;5009510;28;20137;-78
2022/05/02 02:35:28;;;;;;;9.95;5.60;;;;;;;;;;5006464;28;20991;-81
2022/05/02 02:37:54;;;;;;;11.65;5.97;;;;;;;;;;4994733;28;20061;-77
2022/05/02 02:40:21;;;;;;;10.70;5.95;;;;;;;;;;5015084;28;20089;-79
2022/05/02 02:42:47;;;;;;;10.15;5.82;;;;;;;;;;5018702;28;20105;-78
2022/05/02 02:45:13;;;;;;;11.07;6.22;;;;;;;;;;5009167;28;20600;-79
2022/05/02 02:47:40;;;;;;;11.60;6.28;;;;;;;;;;5014670;28;20157;-77
2022/05/02 02:50:06;;;;;;;9.65;5.57;;;;;;;;;;5009224;28;20058;-79
2022/05/02 02:52:33;;;;;;;10.90;6.30;;;;;;;;;;5008756;28;20070;-79
2022/05/02 02:54:59;;;;;;;9.25;5.80;;;;;;;;;;5008658;28;20970;-77
2022/05/02 02:57:25;;;;;;;10.73;6.18;;;;;;;;;;5012791;28;20138;-78
2022/05/02 02:59:52;;;;;;;10.55;6.32;;;;;;;;;;5020296;28;20060;-77
2022/05/02 03:02:18;;;;;;;10.35;6.07;;;;;;;;;;5017377;28;20827;-77
2022/05/02 03:07:30;;;;;;;11.80;6.07;;;;;;;;;;5000447;28;20143;-76
2022/05/02 03:09:57;;;;;;;8.70;5.40;;;;;;;;;;5015868;28;20050;-77
2022/05/02 03:12:24;;;;;;;10.40;5.93;;;;;;;;;;5007820;28;20065;-79
2022/05/02 03:14:51;;;;;;;11.40;5.90;;;;;;;;;;5007918;28;20137;-78
2022/05/02 03:17:17;;;;;;;9.93;6.07;;;;;;;;;;5019516;28;20137;-77
2022/05/02 03:19:44;;;;;;;12.18;6.30;;;;;;;;;;5010110;28;20064;-78
2022/05/02 03:22:10;;;;;;;9.38;5.63;;;;;;;;;;5010036;28;20896;-77
2022/05/02 03:24:36;;;;;;;10.02;5.72;;;;;;;;;;5023507;28;20153;-79
2022/05/02 03:27:03;;;;;;;11.52;5.90;;;;;;;;;;5003524;28;20058;-80
2022/05/02 03:29:29;;;;;;;10.95;6.15;;;;;;;;;;5023485;28;20089;-78
2022/05/02 03:31:55;;;;;;;11.38;6.15;;;;;;;;;;5007182;28;20464;-79
2022/05/02 03:34:22;;;;;;;11.85;6.45;;;;;;;;;;5014558;28;20085;-78
2022/05/02 03:36:48;;;;;;;11.45;6.28;;;;;;;;;;5003943;28;20054;-78
2022/05/02 03:39:14;;;;;;;10.38;6.05;;;;;;;;;;5007652;28;20141;-78
2022/05/02 03:41:41;;;;;;;10.80;6.15;;;;;;;;;;5015375;28;20050;-78
2022/05/02 03:44:07;;;;;;;13.30;6.03;;;;;;;;;;5012695;28;20161;-79
2022/05/02 03:46:33;;;;;;;10.13;6.20;;;;;;;;;;5006089;28;20065;-78
2022/05/02 03:49:00;;;;;;;10.52;6.13;;;;;;;;;;5007833;28;20257;-76
2022/05/02 03:51:27;;;;;;;12.70;6.57;;;;;;;;;;5007024;28;20058;-77
2022/05/02 03:53:53;;;;;;;14.82;6.53;;;;;;;;;;5006768;28;20050;-78
2022/05/02 03:56:19;;;;;;;12.40;6.30;;;;;;;;;;5013400;28;20521;-79
2022/05/02 03:58:45;;;;;;;12.05;6.22;;;;;;;;;;5005190;28;20140;-78
2022/05/02 04:01:12;;;;;;;9.30;5.63;;;;;;;;;;5007449;28;20440;-79
2022/05/02 04:03:38;;;;;;;14.20;6.35;;;;;;;;;;5007583;28;20097;-81
2022/05/02 04:06:05;;;;;;;12.00;6.65;;;;;;;;;;5005220;28;20128;-76
2022/05/02 04:08:31;;;;;;;11.50;6.78;;;;;;;;;;4999799;28;20065;-76
2022/05/02 04:10:57;;;;;;;12.00;6.55;;;;;;;;;;5004994;28;20823;-79
2022/05/02 04:13:24;;;;;;;13.38;6.40;;;;;;;;;;5003054;28;20054;-78
2022/05/02 04:15:50;;;;;;;11.35;6.60;;;;;;;;;;5005099;28;20137;-76
2022/05/02 04:18:16;;;;;;;10.45;6.20;;;;;;;;;;5015514;28;20061;-78
2022/05/02 04:20:43;;;;;;;12.27;6.25;;;;;;;;;;5001867;28;20145;-78
2022/05/02 04:23:09;;;;;;;12.15;6.05;;;;;;;;;;5020146;28;20149;-77
2022/05/02 04:25:36;;;;;;;13.38;6.40;;;;;;;;;;5010219;28;20140;-77
2022/05/02 04:28:02;;;;;;;12.20;6.30;;;;;;;;;;5038007;28;20094;-78
2022/05/02 04:30:29;;;;;;;10.93;5.78;;;;;;;;;;5014325;28;20094;-78
2022/05/02 04:32:55;;;;;;;11.43;6.60;;;;;;;;;;5005848;28;20058;-79
2022/05/02 04:35:22;;;;;;;13.02;6.50;;;;;;;;;;5013700;28;20510;-79
2022/05/02 04:37:48;;;;;;;11.68;6.10;;;;;;;;;;5000732;28;20052;-79
2022/05/02 04:40:14;;;;;;;11.07;6.25;;;;;;;;;;5013466;28;20060;-79
2022/05/02 04:42:41;;;;;;;11.60;6.63;;;;;;;;;;5029493;28;20051;-78
2022/05/02 04:45:07;;;;;;;12.32;6.93;;;;;;;;;;5003981;28;20068;-77
2022/05/02 04:47:33;;;;;;;14.05;6.63;;;;;;;;;;5004551;28;20141;-79
2022/05/02 04:50:02;;;;;;;13.48;7.45;;;;;;;;;;5012859;28;20149;-77
2022/05/02 04:52:29;;;;;;;12.38;6.93;;;;;;;;;;5013644;28;20101;-78
2022/05/02 04:54:55;;;;;;;12.48;6.65;;;;;;;;;;5003069;28;20057;-78
2022/05/02 04:57:21;;;;;;;12.18;7.05;;;;;;;;;;5014126;28;20428;-79
2022/05/02 04:59:48;;;;;;;12.80;7.40;;;;;;;;;;5024225;28;20163;-77
2022/05/02 05:02:14;;;;;;;14.10;7.60;;;;;;;;;;5010773;28;20448;-77
2022/05/02 05:04:41;;;;;;;12.07;7.15;;;;;;;;;;5007006;28;20054;-79
2022/05/02 05:07:10;;;;;;;18.08;6.82;;;;;;;;;;5009954;28;20148;-76
2022/05/02 05:09:36;;;;;;;12.43;7.35;;;;;;;;;;5014120;28;20053;-78
2022/05/02 05:12:09;;;;;;;12.27;6.95;;;;;;;;;;5020042;28;20136;-77
2022/05/02 05:17:57;;;;;;;12.65;7.50;;;;;;;;;;5004565;28;20133;-78
2022/05/02 05:20:42;;;;;;;17.50;7.82;;;;;;;;;;5004825;28;20432;-79
2022/05/02 05:23:27;;;;;;;14.35;7.80;;;;;;;;;;5025008;28;20063;-79
2022/05/02 05:26:07;;;;;;;14.32;7.93;;;;;;;;;;5012373;28;20058;-77
2022/05/02 05:28:42;;;;;;;14.18;7.93;;;;;;;;;;5002675;28;20062;-77
2022/05/02 05:31:21;;;;;;;19.08;8.02;;;;;;;;;;5010781;28;20149;-79
2022/05/02 05:33:56;;;;;;;15.27;8.02;;;;;;;;;;5005060;28;20054;-78
2022/05/02 05:36:42;;;;;;;17.17;7.93;;;;;;;;;;5000172;28;20175;-79
2022/05/02 05:39:19;;;;;;;16.88;7.63;;;;;;;;;;5006897;28;20054;-78
2022/05/02 05:41:59;;;;;;;15.02;8.00;;;;;;;;;;5013386;28;20133;-78
2022/05/02 05:44:32;;;;;;;17.70;9.25;;;;;;;;;;5006477;28;20072;-79
2022/05/02 05:47:11;;;;;;;14.10;8.02;;;;;;;;;;5007127;28;20137;-79
2022/05/02 05:49:41;;;;;;;14.15;8.13;;;;;;;;;;5013274;28;20145;-79
2022/05/02 05:52:07;;;;;;;15.80;8.38;;;;;;;;;;5018040;28;20053;-79
2022/05/02 05:54:46;;;;;;;16.45;7.78;;;;;;;;;;5021392;28;20141;-79
2022/05/02 05:57:39;;;;;;;18.17;8.75;;;;;;;;;;5013394;28;20925;-76
2022/05/02 06:00:05;;;;;;;20.00;8.65;;;;;;;;;;5011274;28;20133;-78
2022/05/02 06:02:38;;;;;;;16.85;9.50;;;;;;;;;;5024949;28;20139;-79
2022/05/02 06:05:06;;;;;;;16.05;10.20;;;;;;;;;;5004302;28;20058;-78
2022/05/02 06:07:33;;;;;;;17.70;9.98;;;;;;;;;;5004467;28;20137;-79
2022/05/02 06:10:00;;;;;;;18.85;9.93;;;;;;;;;;5007783;28;20057;-77
2022/05/02 06:12:29;;;;;;;16.40;9.88;;;;;;;;;;5021551;28;20046;-77
2022/05/02 06:20:30;;;;;;;18.88;9.82;;;;;;;;;;5008908;28;20145;-77
2022/05/02 06:22:58;;;;;;;16.80;10.40;;;;;;;;;;5006714;28;20058;-76
2022/05/02 06:25:27;;;;;;;19.02;9.85;;;;;;;;;;5009304;28;20046;-76
2022/05/02 06:27:55;;;;;;;15.32;9.82;;;;;;;;;;5007342;28;20038;-77
2022/05/02 06:30:22;;;;;;;19.52;9.70;;;;;;;;;;5010919;28;20141;-77
2022/05/02 06:32:50;;;;;;;16.70;9.77;;;;;;;;;;5023497;28;20050;-77
2022/05/02 06:35:17;;;;;;;18.35;9.90;;;;;;;;;;5005853;28;20074;-77
2022/05/02 06:37:50;;;;;;;16.98;9.88;;;;;;;;;;5004770;28;20616;-78
2022/05/02 06:40:19;;;;;;;17.85;9.52;;;;;;;;;;5007153;28;20089;-76
2022/05/02 06:42:50;;;;;;;15.65;8.77;;;;;;;;;;5017399;28;20073;-76
2022/05/02 06:45:32;;;;;;;15.13;9.57;;;;;;;;;;5005036;28;20057;-78
2022/05/02 06:48:16;;;;;;;17.23;9.20;;;;;;;;;;5006636;28;20063;-77
2022/05/02 06:50:46;;;;;;;16.98;8.70;;;;;;;;;;5009582;28;20141;-77
2022/05/02 06:53:30;;;;;;;18.83;8.57;;;;;;;;;;5009122;28;20054;-78
2022/05/02 06:56:13;;;;;;;15.25;8.45;;;;;;;;;;4991333;28;20440;-75
2022/05/02 06:58:49;;;;;;;16.90;9.32;;;;;;;;;;5013031;28;20054;-76
2022/05/02 07:01:23;;;;;;;19.50;9.13;;;;;;;;;;5011228;28;20054;-77
2022/05/02 07:03:50;;;;;;;17.83;8.93;;;;;;;;;;5020488;28;20306;-76
2022/05/02 07:06:25;;;;;;;24.10;8.88;;;;;;;;;;5010301;28;20058;-77
2022/05/02 07:08:56;;;;;;;17.33;8.90;;;;;;;;;;5011510;28;20108;-77
2022/05/02 07:11:24;;;;;;;14.93;9.20;;;;;;;;;;5003660;28;20093;-77
2022/05/02 07:13:53;;;;;;;12.18;7.80;;;;;;;;;;5010753;28;20068;-76
2022/05/02 07:16:22;;;;;;;15.48;8.95;;;;;;;;;;5009186;28;20081;-76
2022/05/02 07:19:05;;;;;;;13.75;8.93;;;;;;;;;;5023190;28;20054;-77
2022/05/02 07:21:51;;;;;;;17.45;8.27;;;;;;;;;;5016999;28;20042;-78
2022/05/02 07:24:36;;;;;;;16.98;8.05;;;;;;;;;;5026847;28;20114;-77
2022/05/02 07:27:02;;;;;;;17.65;8.32;;;;;;;;;;5022753;28;20842;-77
2022/05/02 07:29:29;;;;;;;15.43;8.80;;;;;;;;;;5025680;28;20133;-76
2022/05/02 07:31:57;;;;;;;12.88;8.07;;;;;;;;;;5006058;28;20098;-76
2022/05/02 07:34:24;;;;;;;17.88;8.52;;;;;;;;;;5004625;28;20054;-76
2022/05/02 07:36:52;;;;;;;15.32;8.20;;;;;;;;;;5022550;28;20046;-76
2022/05/02 07:39:21;;;;;;;14.80;8.88;;;;;;;;;;5003204;28;20145;-76
2022/05/02 07:41:49;;;;;;;13.98;8.50;;;;;;;;;;5005442;28;20049;-76
2022/05/02 07:44:16;;;;;;;17.45;8.85;;;;;;;;;;5005621;28;20137;-75
2022/05/02 07:46:43;;;;;;;14.15;8.13;;;;;;;;;;5005039;28;20065;-76
2022/05/02 07:49:10;;;;;;;39.58;11.35;;;;;;;;;;5005087;28;20149;-75
2022/05/02 07:51:46;;;;;;;21.95;9.07;;;;;;;;;;5004294;28;20058;-76
2022/05/02 07:54:18;;;;;;;15.10;8.75;;;;;;;;;;5007857;28;20079;-76
2022/05/02 07:56:49;;;;;;;21.55;10.32;;;;;;;;;;5009469;28;20141;-77
2022/05/02 07:59:16;;;;;;;12.57;7.95;;;;;;;;;;4988881;28;20147;-77
2022/05/02 08:01:43;;;;;;;14.48;7.90;;;;;;;;;;5009886;28;20138;-77
2022/05/02 08:04:11;;;;;;;14.57;8.85;;;;;;;;;;5007948;28;20081;-75
2022/05/02 08:06:50;;;;;;;20.52;8.43;;;;;;;;;;5009354;28;20089;-76
2022/05/02 08:09:35;;;;;;;14.40;8.45;;;;;;;;;;5008881;28;20052;-77
2022/05/02 08:12:11;;;;;;;15.40;8.82;;;;;;;;;;5009402;28;20125;-77
2022/05/02 08:14:45;;;;;;;20.40;8.77;;;;;;;;;;5008874;28;20574;-76
2022/05/02 08:17:33;;;;;;;18.50;7.97;;;;;;;;;;5006279;28;20062;-77
2022/05/02 08:20:10;;;;;;;13.23;7.97;;;;;;;;;;5019273;28;20054;-77
2022/05/02 08:28:32;;;;;;;11.65;7.25;;;;;;;;;;5012964;28;20056;-76
2022/05/02 08:31:21;;;;;;;16.27;7.93;;;;;;;;;;5014834;28;20141;-77
2022/05/02 08:33:54;;;;;;;11.88;7.10;;;;;;;;;;4994987;28;20141;-77
2022/05/02 08:36:38;;;;;;;10.60;7.13;;;;;;;;;;5024368;28;20153;-75
2022/05/02 08:39:05;;;;;;;12.75;7.30;;;;;;;;;;5008244;28;20050;-77
2022/05/02 08:41:38;;;;;;;14.05;7.40;;;;;;;;;;5008758;28;20050;-77
2022/05/02 08:44:14;;;;;;;12.90;7.10;;;;;;;;;;5002353;28;20058;-77
2022/05/02 08:46:46;;;;;;;12.32;7.18;;;;;;;;;;5008904;28;20054;-76
2022/05/02 08:49:37;;;;;;;10.23;6.65;;;;;;;;;;5021701;28;20911;-75
2022/05/02 08:52:16;;;;;;;9.32;6.05;;;;;;;;;;5023328;28;20142;-77
2022/05/02 08:54:42;;;;;;;13.45;6.78;;;;;;;;;;5025253;28;21027;-75
2022/05/02 08:57:27;;;;;;;13.30;7.40;;;;;;;;;;5010094;28;20055;-76
2022/05/02 09:00:05;;;;;;;10.60;7.03;;;;;;;;;;5006543;28;20065;-77
2022/05/02 09:02:53;;;;;;;10.82;6.78;;;;;;;;;;5011376;28;20105;-76
2022/05/02 09:05:39;;;;;;;10.20;6.60;;;;;;;;;;5011714;28;20075;-76
2022/05/02 09:08:10;;;;;;;11.55;7.90;;;;;;;;;;5023466;28;20051;-75
2022/05/02 09:10:42;;;;;;;11.27;7.13;;;;;;;;;;5013855;28;20042;-75
2022/05/02 09:13:21;;;;;;;11.13;6.70;;;;;;;;;;5011043;28;20048;-77
2022/05/02 09:16:06;;;;;;;10.30;6.78;;;;;;;;;;5023572;28;20117;-77
2022/05/02 09:18:42;;;;;;;9.15;6.10;;;;;;;;;;5004611;28;20058;-75
2022/05/02 09:21:22;;;;;;;9.15;6.38;;;;;;;;;;5025192;28;20047;-77
2022/05/02 09:23:49;;;;;;;12.38;6.70;;;;;;;;;;4994116;28;20122;-77
2022/05/02 09:26:34;;;;;;;12.95;6.90;;;;;;;;;;5017884;28;20159;-76
2022/05/02 09:29:04;;;;;;;12.93;6.55;;;;;;;;;;5022349;28;20046;-77
2022/05/02 09:31:44;;;;;;;13.32;7.28;;;;;;;;;;5028346;28;20575;-77
2022/05/02 09:34:16;;;;;;;10.63;6.28;;;;;;;;;;5028185;28;20062;-76
2022/05/02 09:36:43;;;;;;;11.52;6.78;;;;;;;;;;5008659;28;20102;-76
2022/05/02 09:39:22;;;;;;;11.27;6.85;;;;;;;;;;5010378;28;20054;-75
2022/05/02 09:42:00;;;;;;;10.70;7.10;;;;;;;;;;5010821;28;20149;-77
2022/05/02 09:50:37;;;;;;;17.20;6.38;;;;;;;;;;5010762;28;20117;-76
2022/05/02 09:53:24;;;;;;;14.82;6.60;;;;;;;;;;5012881;28;20137;-78
2022/05/02 09:58:41;;;;;;;9.18;6.45;;;;;;;;;;5011836;28;20066;-77
2022/05/02 10:01:17;;;;;;;11.43;6.55;;;;;;;;;;5005223;28;20046;-77
2022/05/02 10:03:55;;;;;;;10.40;6.00;;;;;;;;;;5023952;28;20658;-76
2022/05/02 10:06:31;;;;;;;9.40;6.28;;;;;;;;;;5009979;28;20097;-75
2022/05/02 10:09:11;;;;;;;14.05;6.45;;;;;;;;;;5013052;28;20089;-75
2022/05/02 10:12:07;;;;;;;20.55;6.90;;;;;;;;;;5013331;28;20054;-77
2022/05/02 10:14:33;;;;;;;13.27;6.28;;;;;;;;;;4986200;28;20058;-77
2022/05/02 10:17:07;;;;;;;11.63;6.32;;;;;;;;;;5014663;28;20058;-76
2022/05/02 10:19:34;;;;;;;8.98;6.40;;;;;;;;;;5010701;28;20037;-77
2022/05/02 10:22:13;;;;;;;12.73;6.70;;;;;;;;;;5009201;28;20090;-78
2022/05/02 10:25:07;;;;;;;13.75;7.22;;;;;;;;;;5002638;28;20066;-77
2022/05/02 10:27:53;;;;;;;10.95;6.38;;;;;;;;;;5009321;28;20106;-81
2022/05/02 10:30:19;;;;;;;10.25;6.05;;;;;;;;;;5026538;28;20058;-78
2022/05/02 10:32:58;;;;;;;10.02;6.65;;;;;;;;;;5010401;28;20098;-78
2022/05/02 10:35:26;;;;;;;13.82;6.32;;;;;;;;;;5011967;28;20118;-78
2022/05/02 10:38:00;;;;;;;9.25;5.90;;;;;;;;;;5014159;28;20054;-80
2022/05/02 10:40:46;;;;;;;17.50;6.55;;;;;;;;;;5013633;28;20070;-78
2022/05/02 10:43:26;;;;;;;9.55;6.03;;;;;;;;;;5011919;28;20058;-79
2022/05/02 10:45:53;;;;;;;9.05;6.15;;;;;;;;;;5018269;28;20094;-79
2022/05/02 10:48:19;;;;;;;12.77;6.70;;;;;;;;;;5001373;28;20141;-78
2022/05/02 10:51:04;;;;;;;9.73;6.05;;;;;;;;;;5018989;28;20110;-78
2022/05/02 10:53:39;;;;;;;11.32;6.05;;;;;;;;;;5001545;28;20110;-77
2022/05/02 10:56:25;;;;;;;13.00;6.20;;;;;;;;;;5004312;28;20058;-77
2022/05/02 10:58:53;;;;;;;11.25;6.90;;;;;;;;;;5028216;28;20074;-77
2022/05/02 11:01:29;;;;;;;8.57;6.45;;;;;;;;;;5016887;28;20098;-77
2022/05/02 11:04:01;;;;;;;15.48;6.20;;;;;;;;;;5012905;28;20114;-77
2022/05/02 11:06:58;;;;;;;10.48;6.03;;;;;;;;;;5021229;28;20038;-78
2022/05/02 11:09:29;;;;;;;11.82;5.72;;;;;;;;;;5031235;28;20070;-78
2022/05/02 11:11:56;;;;;;;12.82;6.50;;;;;;;;;;5010849;28;20062;-78
2022/05/02 11:14:33;;;;;;;8.65;5.85;;;;;;;;;;5024525;28;20093;-78
2022/05/02 11:17:08;;;;;;;10.95;5.80;;;;;;;;;;5011742;28;20133;-78
2022/05/02 11:22:31;;;;;;;7.75;5.55;;;;;;;;;;5014934;28;20051;-79
2022/05/02 11:25:00;;;;;;;7.50;5.38;;;;;;;;;;5012926;28;19969;-79
2022/05/02 11:27:37;;;;;;;7.93;5.90;;;;;;;;;;5028409;28;20137;-78
2022/05/02 11:30:06;;;;;;;10.57;5.70;;;;;;;;;;5009524;28;20122;-78
2022/05/02 11:32:50;;;;;;;8.27;5.83;;;;;;;;;;5009629;28;20054;-76
2022/05/02 11:35:22;;;;;;;9.30;5.32;;;;;;;;;;5012197;28;20146;-78
2022/05/02 11:37:48;;;;;;;10.60;5.70;;;;;;;;;;5005813;28;20176;-76
2022/05/02 11:40:16;;;;;;;8.63;5.60;;;;;;;;;;5004035;28;20058;-78
2022/05/02 11:42:46;;;;;;;8.95;5.63;;;;;;;;;;5005283;28;20464;-78
2022/05/02 11:45:14;;;;;;;9.32;5.88;;;;;;;;;;5003836;28;20510;-78
2022/05/02 11:47:46;;;;;;;8.45;5.90;;;;;;;;;;5003243;28;20161;-76
2022/05/02 11:50:13;;;;;;;8.02;5.75;;;;;;;;;;5003327;28;20061;-77
2022/05/02 11:52:43;;;;;;;11.00;5.72;;;;;;;;;;5004869;28;20533;-75
2022/05/02 11:55:10;;;;;;;9.10;5.95;;;;;;;;;;5003376;28;20165;-75
2022/05/02 11:57:42;;;;;;;10.45;5.43;;;;;;;;;;5005658;28;20085;-77
2022/05/02 12:00:10;;;;;;;7.35;5.45;;;;;;;;;;4999193;28;20097;-77
2022/05/02 12:02:37;;;;;;;10.38;5.55;;;;;;;;;;5000583;28;20088;-76
2022/05/02 12:05:05;;;;;;;9.02;5.35;;;;;;;;;;5002805;28;20106;-75
2022/05/02 12:07:33;;;;;;;11.23;5.45;;;;;;;;;;5001386;28;20064;-75
2022/05/02 12:10:01;;;;;;;7.32;5.15;;;;;;;;;;5001830;28;20070;-76
2022/05/02 12:12:28;;;;;;;9.35;4.68;;;;;;;;;;5004028;28;20061;-77
2022/05/02 12:15:04;;;;;;;7.10;4.63;;;;;;;;;;5006223;28;21400;-74
2022/05/02 12:17:31;;;;;;;7.18;4.60;;;;;;;;;;5005891;28;20083;-76
2022/05/02 12:19:57;;;;;;;8.10;4.75;;;;;;;;;;5005590;28;20055;-76
2022/05/02 12:22:25;;;;;;;7.07;4.75;;;;;;;;;;5003540;28;20105;-78
2022/05/02 12:24:54;;;;;;;8.57;5.70;;;;;;;;;;5011450;28;20050;-75
2022/05/02 12:27:21;;;;;;;9.05;5.20;;;;;;;;;;5004108;28;20054;-76
2022/05/02 12:29:58;;;;;;;12.45;5.07;;;;;;;;;;4998510;28;20058;-81
2022/05/02 12:32:24;;;;;;;30.98;6.28;;;;;;;;;;5005211;28;20141;-77
2022/05/02 12:34:54;;;;;;;9.75;5.60;;;;;;;;;;5004434;28;20134;-77
2022/05/02 12:37:31;;;;;;;7.70;5.25;;;;;;;;;;5001419;28;20176;-76
2022/05/02 12:39:57;;;;;;;8.00;4.57;;;;;;;;;;5002065;28;20148;-76
2022/05/02 12:42:25;;;;;;;9.63;4.43;;;;;;;;;;4997650;28;20539;-77
2022/05/02 12:44:57;;;;;;;10.23;4.85;;;;;;;;;;5002871;28;20058;-74
2022/05/02 12:47:25;;;;;;;8.05;5.20;;;;;;;;;;5003500;28;20186;-76
2022/05/02 12:50:12;;;;;;;13.40;6.00;;;;;;;;;;5001041;28;20136;-74
2022/05/02 12:52:43;;;;;;;10.23;5.68;;;;;;;;;;5002509;28;20144;-77
2022/05/02 12:55:10;;;;;;;7.25;5.20;;;;;;;;;;5005013;28;20054;-75
2022/05/02 13:00:31;;;;;;;8.93;5.05;;;;;;;;;;5002185;28;20068;-76
2022/05/02 13:03:03;;;;;;;8.63;5.38;;;;;;;;;;4986942;28;20138;-75
2022/05/02 13:05:31;;;;;;;10.30;5.43;;;;;;;;;;4998418;28;20161;-76
2022/05/02 13:08:06;;;;;;;9.00;5.55;;;;;;;;;;5004287;28;20588;-75
2022/05/02 13:10:33;;;;;;;9.43;5.60;;;;;;;;;;5005241;28;20061;-78
2022/05/02 13:12:59;;;;;;;10.68;5.45;;;;;;;;;;5019511;28;20071;-78
2022/05/02 13:15:26;;;;;;;9.00;5.05;;;;;;;;;;5003673;28;20869;-76
2022/05/02 13:17:57;;;;;;;6.75;5.15;;;;;;;;;;5022362;28;20054;-77
2022/05/02 13:20:55;;;;;;;8.65;5.57;;;;;;;;;;4995828;28;20067;-78
2022/05/02 13:23:22;;;;;;;10.43;5.65;;;;;;;;;;5009062;28;20086;-76
2022/05/02 13:26:03;;;;;;;6.78;4.93;;;;;;;;;;5004967;28;20059;-75
2022/05/02 13:28:35;;;;;;;10.13;5.63;;;;;;;;;;5003184;28;20146;-76
2022/05/02 13:31:08;;;;;;;7.93;5.53;;;;;;;;;;5003259;28;20062;-76
2022/05/02 13:33:38;;;;;;;13.88;5.65;;;;;;;;;;5009516;28;20058;-77
2022/05/02 13:36:06;;;;;;;11.13;5.15;;;;;;;;;;5029210;28;20058;-76
2022/05/02 13:38:39;;;;;;;17.65;6.22;;;;;;;;;;5011547;28;20141;-76
2022/05/02 13:41:18;;;;;;;11.80;6.00;;;;;;;;;;5009839;28;20056;-76
2022/05/02 13:44:23;;;;;;;7.47;5.13;;;;;;;;;;5008154;28;20066;-77
2022/05/02 13:46:56;;;;;;;13.77;5.68;;;;;;;;;;5023974;28;20074;-75
2022/05/02 13:49:31;;;;;;;10.20;5.70;;;;;;;;;;4994308;28;20505;-75
2022/05/02 13:52:18;;;;;;;11.60;5.57;;;;;;;;;;4999732;28;20047;-77
2022/05/02 13:54:49;;;;;;;9.65;5.00;;;;;;;;;;4997373;28;20054;-76
2022/05/02 13:57:33;;;;;;;8.77;5.97;;;;;;;;;;5006099;28;20054;-77
2022/05/02 14:02:59;;;;;;;11.20;5.90;;;;;;;;;;5008962;28;20513;-76
2022/05/02 14:05:43;;;;;;;12.40;5.75;;;;;;;;;;5004295;28;20098;-76
2022/05/02 14:08:13;;;;;;;10.60;6.30;;;;;;;;;;4997490;28;20102;-76
2022/05/02 14:10:53;;;;;;;8.07;5.57;;;;;;;;;;5008560;28;20209;-78
2022/05/02 14:13:20;;;;;;;8.77;5.70;;;;;;;;;;5000998;28;20133;-76
2022/05/02 14:15:46;;;;;;;9.10;5.53;;;;;;;;;;4992731;28;20568;-77
2022/05/02 14:18:17;;;;;;;10.82;6.03;;;;;;;;;;5004128;28;20714;-77
2022/05/02 14:20:45;;;;;;;9.73;6.38;;;;;;;;;;5005393;28;20046;-74
2022/05/02 14:23:12;;;;;;;9.95;5.20;;;;;;;;;;4997134;28;20132;-74
2022/05/02 14:25:40;;;;;;;8.90;5.65;;;;;;;;;;4984813;28;20065;-77
2022/05/02 14:28:07;;;;;;;9.88;5.60;;;;;;;;;;5004099;28;20041;-76
2022/05/02 14:30:37;;;;;;;9.48;5.40;;;;;;;;;;5026182;28;20055;-78
2022/05/02 14:33:04;;;;;;;11.80;5.97;;;;;;;;;;5009330;28;20101;-77
2022/05/02 14:35:38;;;;;;;8.80;5.72;;;;;;;;;;4999528;28;20058;-76
2022/05/02 14:38:08;;;;;;;8.48;5.55;;;;;;;;;;4999339;28;20133;-76
2022/05/02 14:40:41;;;;;;;8.48;5.45;;;;;;;;;;5002775;28;20057;-76
2022/05/02 14:43:08;;;;;;;10.52;5.85;;;;;;;;;;4992720;28;20062;-78
2022/05/02 14:45:36;;;;;;;11.02;6.18;;;;;;;;;;4998802;28;20054;-77
2022/05/02 14:48:06;;;;;;;10.43;5.63;;;;;;;;;;4999403;28;20057;-75
2022/05/02 14:50:33;;;;;;;11.77;5.40;;;;;;;;;;4979728;28;20119;-78
2022/05/02 14:53:12;;;;;;;9.35;6.22;;;;;;;;;;4998985;28;20134;-78
2022/05/02 14:55:41;;;;;;;10.45;5.65;;;;;;;;;;4992325;28;20056;-77
2022/05/02 14:58:12;;;;;;;13.38;5.97;;;;;;;;;;5003834;28;20089;-76
2022/05/02 15:00:38;;;;;;;;;;;;;;;;;;5002532;28;20137;-76
2022/05/02 15:03:05;;;;;;;8.23;5.70;;;;;;;;;;5000378;28;44585;-77
2022/05/02 15:05:34;;;;;;;11.35;5.43;;;;;;;;;;4999696;28;20069;-76
2022/05/02 15:08:03;;;;;;;15.95;5.68;;;;;;;;;;5004409;28;20065;-75
2022/05/02 15:10:45;;;;;;;11.48;5.43;;;;;;;;;;4998614;28;20050;-76
2022/05/02 15:13:34;;;;;;;8.27;5.03;;;;;;;;;;5004831;28;20089;-74
2022/05/02 15:16:03;;;;;;;8.75;5.40;;;;;;;;;;4996151;28;20529;-77
2022/05/02 15:18:36;;;;;;;10.40;5.65;;;;;;;;;;5001697;28;20059;-75
2022/05/02 15:21:17;;;;;;;8.30;5.38;;;;;;;;;;5005276;28;20202;-75
2022/05/02 15:23:44;;;;;;;7.45;4.85;;;;;;;;;;5000431;28;20367;-77
2022/05/02 15:26:10;;;;;;;9.27;5.38;;;;;;;;;;5003669;28;20058;-77
2022/05/02 15:37:40;;;;;;;11.20;5.03;;;;;;;;;;5013104;28;20050;-77
2022/05/02 15:40:39;;;;;;;11.43;4.55;;;;;;;;;;5010305;28;20058;-77
2022/05/02 15:43:19;;;;;;;9.73;5.55;;;;;;;;;;5005901;28;20354;-76